sensor_id;sensor_type;location;lat;lon;timestamp;P1;durP1;ratioP1;P2;durP2;ratioP2
12114;SDS011;6121;49.810;6.418;2023-05-17T00:02:19;33.53;;;10.43;;
12114;SDS011;6121;49.810;6.418;2023-05-17T00:04:45;35.30;;;10.73;;
12114;SDS011;6121;49.810;6.418;2023-05-17T00:07:10;32.38;;;10.27;;
12114;SDS011;6121;49.810;6.418;2023-05-17T00:09:36;27.77;;;8.93;;
12114;SDS011;6121;49.810;6.418;2023-05-17T00:12:02;27.80;;;8.77;;
12114;SDS011;6121;49.810;6.418;2023-05-17T00:14:28;34.80;;;10.75;;
12114;SDS011;6121;49.810;6.418;2023-05-17T00:16:54;27.23;;;8.35;;
12114;SDS011;6121;49.810;6.418;2023-05-17T00:19:20;33.22;;;10.48;;
12114;SDS011;6121;49.810;6.418;2023-05-17T00:21:46;28.97;;;9.07;;
12114;SDS011;6121;49.810;6.418;2023-05-17T00:24:11;29.13;;;9.50;;
12114;SDS011;6121;49.810;6.418;2023-05-17T00:26:37;33.13;;;10.13;;
12114;SDS011;6121;49.810;6.418;2023-05-17T00:29:03;31.00;;;9.52;;
12114;SDS011;6121;49.810;6.418;2023-05-17T00:31:29;31.58;;;10.00;;
12114;SDS011;6121;49.810;6.418;2023-05-17T00:33:55;28.60;;;9.20;;
12114;SDS011;6121;49.810;6.418;2023-05-17T00:36:21;32.03;;;10.18;;
12114;SDS011;6121;49.810;6.418;2023-05-17T00:38:47;31.42;;;9.70;;
12114;SDS011;6121;49.810;6.418;2023-05-17T00:41:13;30.98;;;9.70;;
12114;SDS011;6121;49.810;6.418;2023-05-17T00:43:38;30.17;;;9.48;;
12114;SDS011;6121;49.810;6.418;2023-05-17T00:46:04;29.40;;;9.40;;
12114;SDS011;6121;49.810;6.418;2023-05-17T00:48:30;36.75;;;11.10;;
12114;SDS011;6121;49.810;6.418;2023-05-17T00:50:57;26.93;;;8.63;;
12114;SDS011;6121;49.810;6.418;2023-05-17T00:53:23;32.80;;;10.13;;
12114;SDS011;6121;49.810;6.418;2023-05-17T00:55:50;31.50;;;9.73;;
12114;SDS011;6121;49.810;6.418;2023-05-17T00:58:19;36.38;;;11.23;;
12114;SDS011;6121;49.810;6.418;2023-05-17T01:00:44;28.88;;;8.85;;
12114;SDS011;6121;49.810;6.418;2023-05-17T01:03:11;27.13;;;8.63;;
12114;SDS011;6121;49.810;6.418;2023-05-17T01:05:37;33.63;;;10.45;;
12114;SDS011;6121;49.810;6.418;2023-05-17T01:08:03;28.77;;;8.90;;
12114;SDS011;6121;49.810;6.418;2023-05-17T01:10:37;32.42;;;10.10;;
12114;SDS011;6121;49.810;6.418;2023-05-17T01:13:26;32.70;;;10.02;;
12114;SDS011;6121;49.810;6.418;2023-05-17T01:16:15;27.45;;;8.40;;
12114;SDS011;6121;49.810;6.418;2023-05-17T01:18:47;20.13;;;5.45;;
12114;SDS011;6121;49.810;6.418;2023-05-17T01:24:15;20.30;;;5.82;;
12114;SDS011;6121;49.810;6.418;2023-05-17T01:26:52;17.73;;;5.18;;
12114;SDS011;6121;49.810;6.418;2023-05-17T01:29:20;22.05;;;6.15;;
12114;SDS011;6121;49.810;6.418;2023-05-17T01:31:50;18.83;;;5.28;;
12114;SDS011;6121;49.810;6.418;2023-05-17T01:34:23;20.05;;;5.88;;
12114;SDS011;6121;49.810;6.418;2023-05-17T01:36:49;18.20;;;5.35;;
12114;SDS011;6121;49.810;6.418;2023-05-17T01:39:15;21.65;;;6.28;;
12114;SDS011;6121;49.810;6.418;2023-05-17T01:41:41;19.25;;;5.78;;
12114;SDS011;6121;49.810;6.418;2023-05-17T01:46:59;16.52;;;4.80;;
12114;SDS011;6121;49.810;6.418;2023-05-17T01:49:35;23.25;;;6.65;;
12114;SDS011;6121;49.810;6.418;2023-05-17T01:57:31;22.00;;;6.65;;
12114;SDS011;6121;49.810;6.418;2023-05-17T02:00:01;17.35;;;5.20;;
12114;SDS011;6121;49.810;6.418;2023-05-17T02:02:39;24.85;;;7.10;;
12114;SDS011;6121;49.810;6.418;2023-05-17T02:05:05;20.38;;;5.93;;
12114;SDS011;6121;49.810;6.418;2023-05-17T02:07:32;23.58;;;6.88;;
12114;SDS011;6121;49.810;6.418;2023-05-17T02:09:58;20.97;;;6.20;;
12114;SDS011;6121;49.810;6.418;2023-05-17T02:12:24;25.07;;;7.33;;
12114;SDS011;6121;49.810;6.418;2023-05-17T02:14:50;19.88;;;5.97;;
12114;SDS011;6121;49.810;6.418;2023-05-17T02:17:15;21.55;;;6.45;;
12114;SDS011;6121;49.810;6.418;2023-05-17T02:19:42;20.42;;;6.03;;
12114;SDS011;6121;49.810;6.418;2023-05-17T02:22:08;19.35;;;5.93;;
12114;SDS011;6121;49.810;6.418;2023-05-17T02:24:34;27.33;;;7.80;;
12114;SDS011;6121;49.810;6.418;2023-05-17T02:27:00;19.02;;;5.80;;
12114;SDS011;6121;49.810;6.418;2023-05-17T02:29:27;26.13;;;7.50;;
12114;SDS011;6121;49.810;6.418;2023-05-17T02:31:53;18.58;;;5.50;;
12114;SDS011;6121;49.810;6.418;2023-05-17T02:34:19;27.13;;;7.47;;
12114;SDS011;6121;49.810;6.418;2023-05-17T02:36:48;19.83;;;6.13;;
12114;SDS011;6121;49.810;6.418;2023-05-17T02:39:14;21.40;;;6.47;;
12114;SDS011;6121;49.810;6.418;2023-05-17T02:41:40;22.65;;;6.82;;
12114;SDS011;6121;49.810;6.418;2023-05-17T02:44:06;18.70;;;5.60;;
12114;SDS011;6121;49.810;6.418;2023-05-17T02:46:32;24.70;;;7.43;;
12114;SDS011;6121;49.810;6.418;2023-05-17T02:48:58;18.02;;;5.55;;
12114;SDS011;6121;49.810;6.418;2023-05-17T02:51:24;23.92;;;7.07;;
12114;SDS011;6121;49.810;6.418;2023-05-17T02:53:50;24.95;;;7.43;;
12114;SDS011;6121;49.810;6.418;2023-05-17T02:56:16;21.80;;;6.22;;
12114;SDS011;6121;49.810;6.418;2023-05-17T02:58:42;24.77;;;7.10;;
12114;SDS011;6121;49.810;6.418;2023-05-17T03:01:08;18.73;;;5.65;;
12114;SDS011;6121;49.810;6.418;2023-05-17T03:03:34;22.80;;;6.70;;
12114;SDS011;6121;49.810;6.418;2023-05-17T03:06:02;23.60;;;6.75;;
12114;SDS011;6121;49.810;6.418;2023-05-17T03:08:30;25.55;;;7.32;;
12114;SDS011;6121;49.810;6.418;2023-05-17T03:10:57;19.83;;;5.80;;
12114;SDS011;6121;49.810;6.418;2023-05-17T03:13:22;20.98;;;6.22;;
12114;SDS011;6121;49.810;6.418;2023-05-17T03:15:48;22.47;;;6.53;;
12114;SDS011;6121;49.810;6.418;2023-05-17T03:18:14;23.38;;;6.75;;
12114;SDS011;6121;49.810;6.418;2023-05-17T03:20:41;24.58;;;7.07;;
12114;SDS011;6121;49.810;6.418;2023-05-17T03:23:07;20.23;;;6.00;;
12114;SDS011;6121;49.810;6.418;2023-05-17T03:25:39;29.83;;;8.40;;
12114;SDS011;6121;49.810;6.418;2023-05-17T03:28:05;19.90;;;5.90;;
12114;SDS011;6121;49.810;6.418;2023-05-17T03:30:31;26.08;;;7.50;;
12114;SDS011;6121;49.810;6.418;2023-05-17T03:32:58;17.87;;;5.40;;
12114;SDS011;6121;49.810;6.418;2023-05-17T03:35:23;26.63;;;7.78;;
12114;SDS011;6121;49.810;6.418;2023-05-17T03:37:53;22.70;;;6.80;;
12114;SDS011;6121;49.810;6.418;2023-05-17T03:40:19;27.40;;;7.82;;
12114;SDS011;6121;49.810;6.418;2023-05-17T03:42:45;24.43;;;6.90;;
12114;SDS011;6121;49.810;6.418;2023-05-17T03:45:11;21.30;;;6.35;;
12114;SDS011;6121;49.810;6.418;2023-05-17T03:47:37;26.33;;;7.50;;
12114;SDS011;6121;49.810;6.418;2023-05-17T03:50:04;17.50;;;5.50;;
12114;SDS011;6121;49.810;6.418;2023-05-17T03:52:31;26.30;;;7.68;;
12114;SDS011;6121;49.810;6.418;2023-05-17T03:54:57;21.27;;;6.28;;
12114;SDS011;6121;49.810;6.418;2023-05-17T03:57:23;24.43;;;7.07;;
12114;SDS011;6121;49.810;6.418;2023-05-17T03:59:49;24.10;;;6.93;;
12114;SDS011;6121;49.810;6.418;2023-05-17T04:02:16;25.87;;;7.30;;
12114;SDS011;6121;49.810;6.418;2023-05-17T04:04:50;29.15;;;8.20;;
12114;SDS011;6121;49.810;6.418;2023-05-17T04:07:17;21.25;;;6.10;;
12114;SDS011;6121;49.810;6.418;2023-05-17T04:09:44;25.98;;;7.47;;
12114;SDS011;6121;49.810;6.418;2023-05-17T04:12:10;16.80;;;5.00;;
12114;SDS011;6121;49.810;6.418;2023-05-17T04:14:36;28.73;;;8.00;;
12114;SDS011;6121;49.810;6.418;2023-05-17T04:17:03;17.25;;;5.10;;
12114;SDS011;6121;49.810;6.418;2023-05-17T04:19:29;25.25;;;7.05;;
12114;SDS011;6121;49.810;6.418;2023-05-17T04:21:56;20.25;;;5.70;;
12114;SDS011;6121;49.810;6.418;2023-05-17T04:24:23;22.58;;;6.40;;
12114;SDS011;6121;49.810;6.418;2023-05-17T04:26:50;19.92;;;5.68;;
12114;SDS011;6121;49.810;6.418;2023-05-17T04:29:20;23.70;;;6.45;;
12114;SDS011;6121;49.810;6.418;2023-05-17T04:31:46;26.25;;;7.40;;
12114;SDS011;6121;49.810;6.418;2023-05-17T04:34:13;19.30;;;5.50;;
12114;SDS011;6121;49.810;6.418;2023-05-17T04:36:40;25.45;;;7.10;;
12114;SDS011;6121;49.810;6.418;2023-05-17T04:39:07;18.92;;;5.28;;
12114;SDS011;6121;49.810;6.418;2023-05-17T04:41:33;23.17;;;6.72;;
12114;SDS011;6121;49.810;6.418;2023-05-17T04:44:01;21.52;;;6.13;;
12114;SDS011;6121;49.810;6.418;2023-05-17T04:46:33;22.52;;;6.45;;
12114;SDS011;6121;49.810;6.418;2023-05-17T04:48:59;21.77;;;6.18;;
12114;SDS011;6121;49.810;6.418;2023-05-17T04:51:26;20.67;;;6.05;;
12114;SDS011;6121;49.810;6.418;2023-05-17T04:53:52;23.63;;;6.57;;
12114;SDS011;6121;49.810;6.418;2023-05-17T04:56:17;24.90;;;7.03;;
12114;SDS011;6121;49.810;6.418;2023-05-17T04:58:43;31.88;;;8.63;;
12114;SDS011;6121;49.810;6.418;2023-05-17T05:01:10;26.70;;;7.33;;
12114;SDS011;6121;49.810;6.418;2023-05-17T05:03:36;51.72;;;13.60;;
12114;SDS011;6121;49.810;6.418;2023-05-17T05:06:05;42.33;;;11.68;;
12114;SDS011;6121;49.810;6.418;2023-05-17T05:08:32;41.50;;;11.07;;
12114;SDS011;6121;49.810;6.418;2023-05-17T05:10:59;36.40;;;10.00;;
12114;SDS011;6121;49.810;6.418;2023-05-17T05:13:26;34.38;;;9.48;;
12114;SDS011;6121;49.810;6.418;2023-05-17T05:15:52;34.70;;;9.57;;
12114;SDS011;6121;49.810;6.418;2023-05-17T05:18:18;33.70;;;9.33;;
12114;SDS011;6121;49.810;6.418;2023-05-17T05:20:47;36.40;;;10.18;;
12114;SDS011;6121;49.810;6.418;2023-05-17T05:23:13;31.50;;;8.50;;
12114;SDS011;6121;49.810;6.418;2023-05-17T05:25:42;42.58;;;11.48;;
12114;SDS011;6121;49.810;6.418;2023-05-17T05:28:09;30.13;;;8.40;;
12114;SDS011;6121;49.810;6.418;2023-05-17T05:30:38;38.92;;;10.75;;
12114;SDS011;6121;49.810;6.418;2023-05-17T05:33:04;33.67;;;9.02;;
12114;SDS011;6121;49.810;6.418;2023-05-17T05:35:30;38.58;;;10.65;;
12114;SDS011;6121;49.810;6.418;2023-05-17T05:37:58;36.17;;;9.88;;
12114;SDS011;6121;49.810;6.418;2023-05-17T05:40:24;38.85;;;10.57;;
12114;SDS011;6121;49.810;6.418;2023-05-17T05:42:50;38.50;;;10.35;;
12114;SDS011;6121;49.810;6.418;2023-05-17T05:45:17;35.92;;;9.68;;
12114;SDS011;6121;49.810;6.418;2023-05-17T05:47:45;39.97;;;10.93;;
12114;SDS011;6121;49.810;6.418;2023-05-17T05:50:11;32.58;;;9.15;;
12114;SDS011;6121;49.810;6.418;2023-05-17T05:52:38;40.03;;;10.98;;
12114;SDS011;6121;49.810;6.418;2023-05-17T05:55:03;38.50;;;10.68;;
12114;SDS011;6121;49.810;6.418;2023-05-17T05:57:30;33.67;;;9.33;;
12114;SDS011;6121;49.810;6.418;2023-05-17T05:59:55;31.25;;;8.93;;
12114;SDS011;6121;49.810;6.418;2023-05-17T06:02:21;39.75;;;11.13;;
12114;SDS011;6121;49.810;6.418;2023-05-17T06:04:48;43.03;;;11.68;;
12114;SDS011;6121;49.810;6.418;2023-05-17T06:07:14;33.42;;;9.43;;
12114;SDS011;6121;49.810;6.418;2023-05-17T06:09:40;38.78;;;10.57;;
12114;SDS011;6121;49.810;6.418;2023-05-17T06:12:06;40.92;;;11.20;;
12114;SDS011;6121;49.810;6.418;2023-05-17T06:14:32;37.92;;;10.55;;
12114;SDS011;6121;49.810;6.418;2023-05-17T06:16:58;36.00;;;10.23;;
12114;SDS011;6121;49.810;6.418;2023-05-17T06:19:23;34.13;;;9.53;;
12114;SDS011;6121;49.810;6.418;2023-05-17T06:21:49;41.45;;;11.63;;
12114;SDS011;6121;49.810;6.418;2023-05-17T06:24:15;32.00;;;8.98;;
12114;SDS011;6121;49.810;6.418;2023-05-17T06:26:41;37.38;;;10.38;;
12114;SDS011;6121;49.810;6.418;2023-05-17T06:29:11;42.70;;;11.82;;
12114;SDS011;6121;49.810;6.418;2023-05-17T06:31:37;31.92;;;9.13;;
12114;SDS011;6121;49.810;6.418;2023-05-17T06:34:03;43.30;;;11.98;;
12114;SDS011;6121;49.810;6.418;2023-05-17T06:36:29;35.58;;;10.02;;
12114;SDS011;6121;49.810;6.418;2023-05-17T06:38:54;42.28;;;11.80;;
12114;SDS011;6121;49.810;6.418;2023-05-17T06:41:20;30.65;;;8.63;;
12114;SDS011;6121;49.810;6.418;2023-05-17T06:43:46;38.63;;;10.48;;
12114;SDS011;6121;49.810;6.418;2023-05-17T06:46:12;34.85;;;9.52;;
12114;SDS011;6121;49.810;6.418;2023-05-17T06:48:38;37.17;;;10.13;;
12114;SDS011;6121;49.810;6.418;2023-05-17T06:51:03;35.47;;;9.67;;
12114;SDS011;6121;49.810;6.418;2023-05-17T06:53:29;36.50;;;9.88;;
12114;SDS011;6121;49.810;6.418;2023-05-17T06:55:55;47.15;;;12.90;;
12114;SDS011;6121;49.810;6.418;2023-05-17T06:58:21;39.75;;;10.80;;
12114;SDS011;6121;49.810;6.418;2023-05-17T07:00:47;40.40;;;11.17;;
12114;SDS011;6121;49.810;6.418;2023-05-17T07:03:12;29.00;;;8.00;;
12114;SDS011;6121;49.810;6.418;2023-05-17T07:05:38;38.77;;;10.63;;
12114;SDS011;6121;49.810;6.418;2023-05-17T07:08:04;38.73;;;10.77;;
12114;SDS011;6121;49.810;6.418;2023-05-17T07:10:30;36.00;;;9.80;;
12114;SDS011;6121;49.810;6.418;2023-05-17T07:12:56;33.97;;;9.47;;
12114;SDS011;6121;49.810;6.418;2023-05-17T07:15:21;34.17;;;9.47;;
12114;SDS011;6121;49.810;6.418;2023-05-17T07:17:47;38.70;;;10.63;;
12114;SDS011;6121;49.810;6.418;2023-05-17T07:20:13;36.40;;;10.00;;
12114;SDS011;6121;49.810;6.418;2023-05-17T07:22:38;47.20;;;12.82;;
12114;SDS011;6121;49.810;6.418;2023-05-17T07:25:04;32.83;;;9.25;;
12114;SDS011;6121;49.810;6.418;2023-05-17T07:27:31;36.10;;;10.00;;
12114;SDS011;6121;49.810;6.418;2023-05-17T07:29:57;37.33;;;10.27;;
12114;SDS011;6121;49.810;6.418;2023-05-17T07:32:22;31.67;;;8.90;;
12114;SDS011;6121;49.810;6.418;2023-05-17T07:34:48;40.57;;;11.13;;
12114;SDS011;6121;49.810;6.418;2023-05-17T07:37:14;32.60;;;8.95;;
12114;SDS011;6121;49.810;6.418;2023-05-17T07:39:40;39.92;;;10.82;;
12114;SDS011;6121;49.810;6.418;2023-05-17T07:42:06;31.63;;;8.70;;
12114;SDS011;6121;49.810;6.418;2023-05-17T07:44:32;39.55;;;10.80;;
12114;SDS011;6121;49.810;6.418;2023-05-17T07:46:58;38.63;;;10.73;;
12114;SDS011;6121;49.810;6.418;2023-05-17T07:49:25;30.42;;;8.38;;
12114;SDS011;6121;49.810;6.418;2023-05-17T07:51:51;37.77;;;10.37;;
12114;SDS011;6121;49.810;6.418;2023-05-17T07:54:24;39.87;;;11.03;;
12114;SDS011;6121;49.810;6.418;2023-05-17T07:56:53;37.08;;;10.18;;
12114;SDS011;6121;49.810;6.418;2023-05-17T07:59:22;30.63;;;8.67;;
12114;SDS011;6121;49.810;6.418;2023-05-17T08:01:49;41.50;;;11.63;;
12114;SDS011;6121;49.810;6.418;2023-05-17T08:04:15;32.08;;;8.80;;
12114;SDS011;6121;49.810;6.418;2023-05-17T08:06:41;32.58;;;9.32;;
12114;SDS011;6121;49.810;6.418;2023-05-17T08:09:10;30.92;;;8.63;;
12114;SDS011;6121;49.810;6.418;2023-05-17T08:11:37;27.80;;;8.07;;
12114;SDS011;6121;49.810;6.418;2023-05-17T08:14:10;31.48;;;8.93;;
12114;SDS011;6121;49.810;6.418;2023-05-17T08:16:37;33.10;;;9.32;;
12114;SDS011;6121;49.810;6.418;2023-05-17T08:19:03;39.72;;;10.75;;
12114;SDS011;6121;49.810;6.418;2023-05-17T08:21:29;32.22;;;9.13;;
12114;SDS011;6121;49.810;6.418;2023-05-17T08:23:56;39.10;;;10.85;;
12114;SDS011;6121;49.810;6.418;2023-05-17T08:26:22;31.40;;;8.85;;
12114;SDS011;6121;49.810;6.418;2023-05-17T08:28:49;36.92;;;10.13;;
12114;SDS011;6121;49.810;6.418;2023-05-17T08:31:15;39.25;;;10.82;;
12114;SDS011;6121;49.810;6.418;2023-05-17T08:33:41;31.52;;;8.80;;
12114;SDS011;6121;49.810;6.418;2023-05-17T08:36:07;35.78;;;9.77;;
12114;SDS011;6121;49.810;6.418;2023-05-17T08:38:33;39.38;;;10.60;;
12114;SDS011;6121;49.810;6.418;2023-05-17T08:41:00;36.37;;;10.03;;
12114;SDS011;6121;49.810;6.418;2023-05-17T08:43:27;33.35;;;8.93;;
12114;SDS011;6121;49.810;6.418;2023-05-17T08:45:55;50.55;;;13.55;;
12114;SDS011;6121;49.810;6.418;2023-05-17T08:48:22;41.33;;;11.13;;
12114;SDS011;6121;49.810;6.418;2023-05-17T08:50:52;32.75;;;9.10;;
12114;SDS011;6121;49.810;6.418;2023-05-17T08:53:20;32.15;;;8.63;;
12114;SDS011;6121;49.810;6.418;2023-05-17T08:55:46;38.10;;;10.20;;
12114;SDS011;6121;49.810;6.418;2023-05-17T08:58:15;38.27;;;10.30;;
12114;SDS011;6121;49.810;6.418;2023-05-17T09:00:45;32.70;;;9.02;;
12114;SDS011;6121;49.810;6.418;2023-05-17T09:03:14;35.73;;;9.87;;
12114;SDS011;6121;49.810;6.418;2023-05-17T09:05:43;38.85;;;10.52;;
12114;SDS011;6121;49.810;6.418;2023-05-17T09:08:09;37.55;;;10.02;;
12114;SDS011;6121;49.810;6.418;2023-05-17T09:10:39;68.18;;;18.38;;
12114;SDS011;6121;49.810;6.418;2023-05-17T09:13:06;57.80;;;15.82;;
12114;SDS011;6121;49.810;6.418;2023-05-17T09:15:33;46.10;;;12.35;;
12114;SDS011;6121;49.810;6.418;2023-05-17T09:17:59;53.58;;;14.43;;
12114;SDS011;6121;49.810;6.418;2023-05-17T09:20:26;48.22;;;13.05;;
12114;SDS011;6121;49.810;6.418;2023-05-17T09:23:04;46.65;;;12.55;;
12114;SDS011;6121;49.810;6.418;2023-05-17T09:25:31;62.83;;;16.65;;
12114;SDS011;6121;49.810;6.418;2023-05-17T09:28:01;55.78;;;14.95;;
12114;SDS011;6121;49.810;6.418;2023-05-17T09:30:29;54.33;;;14.00;;
12114;SDS011;6121;49.810;6.418;2023-05-17T09:32:56;51.33;;;13.65;;
12114;SDS011;6121;49.810;6.418;2023-05-17T09:35:28;53.60;;;14.13;;
12114;SDS011;6121;49.810;6.418;2023-05-17T09:38:04;63.33;;;16.63;;
12114;SDS011;6121;49.810;6.418;2023-05-17T09:40:30;52.80;;;13.68;;
12114;SDS011;6121;49.810;6.418;2023-05-17T09:42:57;56.10;;;14.68;;
12114;SDS011;6121;49.810;6.418;2023-05-17T09:45:24;53.03;;;14.18;;
12114;SDS011;6121;49.810;6.418;2023-05-17T09:47:50;52.88;;;13.93;;
12114;SDS011;6121;49.810;6.418;2023-05-17T09:50:17;42.50;;;11.43;;
12114;SDS011;6121;49.810;6.418;2023-05-17T09:52:44;49.35;;;13.10;;
12114;SDS011;6121;49.810;6.418;2023-05-17T09:55:10;55.22;;;14.32;;
12114;SDS011;6121;49.810;6.418;2023-05-17T09:57:38;60.30;;;16.15;;
12114;SDS011;6121;49.810;6.418;2023-05-17T10:00:05;54.13;;;14.18;;
12114;SDS011;6121;49.810;6.418;2023-05-17T10:02:38;56.47;;;14.75;;
12114;SDS011;6121;49.810;6.418;2023-05-17T10:05:08;59.53;;;15.50;;
12114;SDS011;6121;49.810;6.418;2023-05-17T10:07:37;49.13;;;13.05;;
12114;SDS011;6121;49.810;6.418;2023-05-17T10:10:04;54.15;;;14.48;;
12114;SDS011;6121;49.810;6.418;2023-05-17T10:12:33;52.47;;;13.40;;
12114;SDS011;6121;49.810;6.418;2023-05-17T10:15:03;62.90;;;16.02;;
12114;SDS011;6121;49.810;6.418;2023-05-17T10:17:31;54.38;;;14.27;;
12114;SDS011;6121;49.810;6.418;2023-05-17T10:20:02;62.03;;;15.68;;
12114;SDS011;6121;49.810;6.418;2023-05-17T10:22:31;53.23;;;12.93;;
12114;SDS011;6121;49.810;6.418;2023-05-17T10:24:58;59.72;;;15.10;;
12114;SDS011;6121;49.810;6.418;2023-05-17T10:27:24;61.22;;;15.27;;
12114;SDS011;6121;49.810;6.418;2023-05-17T10:29:50;48.20;;;12.80;;
12114;SDS011;6121;49.810;6.418;2023-05-17T10:32:19;55.55;;;14.05;;
12114;SDS011;6121;49.810;6.418;2023-05-17T10:34:50;63.30;;;16.33;;
12114;SDS011;6121;49.810;6.418;2023-05-17T10:37:18;54.80;;;14.35;;
12114;SDS011;6121;49.810;6.418;2023-05-17T10:39:44;54.60;;;14.38;;
12114;SDS011;6121;49.810;6.418;2023-05-17T10:42:11;55.83;;;13.95;;
12114;SDS011;6121;49.810;6.418;2023-05-17T10:44:38;63.80;;;15.68;;
12114;SDS011;6121;49.810;6.418;2023-05-17T10:47:04;63.78;;;15.63;;
12114;SDS011;6121;49.810;6.418;2023-05-17T10:49:32;61.97;;;15.70;;
12114;SDS011;6121;49.810;6.418;2023-05-17T10:52:10;48.53;;;12.73;;
12114;SDS011;6121;49.810;6.418;2023-05-17T10:54:43;51.22;;;13.43;;
12114;SDS011;6121;49.810;6.418;2023-05-17T10:57:20;46.15;;;12.50;;
12114;SDS011;6121;49.810;6.418;2023-05-17T11:00:00;57.90;;;15.17;;
12114;SDS011;6121;49.810;6.418;2023-05-17T11:02:29;45.50;;;12.13;;
12114;SDS011;6121;49.810;6.418;2023-05-17T11:04:56;54.65;;;14.57;;
12114;SDS011;6121;49.810;6.418;2023-05-17T11:07:31;58.70;;;15.95;;
12114;SDS011;6121;49.810;6.418;2023-05-17T11:12:28;47.08;;;13.18;;
12114;SDS011;6121;49.810;6.418;2023-05-17T11:15:22;53.60;;;14.40;;
12114;SDS011;6121;49.810;6.418;2023-05-17T11:17:52;54.92;;;14.90;;
12114;SDS011;6121;49.810;6.418;2023-05-17T11:22:54;44.33;;;12.18;;
12114;SDS011;6121;49.810;6.418;2023-05-17T11:25:32;55.42;;;15.43;;
12114;SDS011;6121;49.810;6.418;2023-05-17T11:28:05;49.00;;;13.52;;
12114;SDS011;6121;49.810;6.418;2023-05-17T11:30:32;47.08;;;13.18;;
12114;SDS011;6121;49.810;6.418;2023-05-17T11:33:02;49.00;;;13.60;;
12114;SDS011;6121;49.810;6.418;2023-05-17T11:35:37;51.30;;;14.00;;
12114;SDS011;6121;49.810;6.418;2023-05-17T11:38:19;57.80;;;16.00;;
12114;SDS011;6121;49.810;6.418;2023-05-17T11:40:48;46.17;;;12.73;;
12114;SDS011;6121;49.810;6.418;2023-05-17T11:43:20;48.45;;;13.30;;
12114;SDS011;6121;49.810;6.418;2023-05-17T11:45:49;54.13;;;15.02;;
12114;SDS011;6121;49.810;6.418;2023-05-17T11:48:19;63.55;;;17.63;;
12114;SDS011;6121;49.810;6.418;2023-05-17T11:50:48;48.17;;;13.98;;
12114;SDS011;6121;49.810;6.418;2023-05-17T11:53:15;50.40;;;14.25;;
12114;SDS011;6121;49.810;6.418;2023-05-17T11:55:43;57.10;;;15.77;;
12114;SDS011;6121;49.810;6.418;2023-05-17T11:58:14;48.08;;;13.52;;
12114;SDS011;6121;49.810;6.418;2023-05-17T12:00:42;51.43;;;14.60;;
12114;SDS011;6121;49.810;6.418;2023-05-17T12:03:16;39.53;;;11.30;;
12114;SDS011;6121;49.810;6.418;2023-05-17T12:05:42;55.55;;;15.88;;
12114;SDS011;6121;49.810;6.418;2023-05-17T12:08:08;53.75;;;15.38;;
12114;SDS011;6121;49.810;6.418;2023-05-17T12:10:35;50.47;;;14.50;;
12114;SDS011;6121;49.810;6.418;2023-05-17T12:13:01;48.85;;;13.80;;
12114;SDS011;6121;49.810;6.418;2023-05-17T12:15:28;49.22;;;14.38;;
12114;SDS011;6121;49.810;6.418;2023-05-17T12:17:56;50.40;;;14.38;;
12114;SDS011;6121;49.810;6.418;2023-05-17T12:20:22;46.58;;;13.55;;
12114;SDS011;6121;49.810;6.418;2023-05-17T12:22:51;43.97;;;12.77;;
12114;SDS011;6121;49.810;6.418;2023-05-17T12:25:18;52.30;;;15.32;;
12114;SDS011;6121;49.810;6.418;2023-05-17T12:27:44;54.80;;;15.95;;
12114;SDS011;6121;49.810;6.418;2023-05-17T12:30:13;45.17;;;13.05;;
12114;SDS011;6121;49.810;6.418;2023-05-17T12:32:40;41.92;;;12.10;;
12114;SDS011;6121;49.810;6.418;2023-05-17T12:35:06;49.20;;;14.52;;
12114;SDS011;6121;49.810;6.418;2023-05-17T12:37:33;53.20;;;15.30;;
12114;SDS011;6121;49.810;6.418;2023-05-17T12:39:59;47.75;;;13.98;;
12114;SDS011;6121;49.810;6.418;2023-05-17T12:42:29;47.08;;;13.65;;
12114;SDS011;6121;49.810;6.418;2023-05-17T12:44:57;48.90;;;14.27;;
12114;SDS011;6121;49.810;6.418;2023-05-17T12:47:24;52.17;;;15.07;;
12114;SDS011;6121;49.810;6.418;2023-05-17T12:49:54;46.33;;;13.45;;
12114;SDS011;6121;49.810;6.418;2023-05-17T12:52:23;50.60;;;14.47;;
12114;SDS011;6121;49.810;6.418;2023-05-17T12:54:49;57.80;;;16.77;;
12114;SDS011;6121;49.810;6.418;2023-05-17T12:57:16;53.40;;;15.20;;
12114;SDS011;6121;49.810;6.418;2023-05-17T12:59:50;48.17;;;13.75;;
12114;SDS011;6121;49.810;6.418;2023-05-17T13:02:18;46.80;;;13.30;;
12114;SDS011;6121;49.810;6.418;2023-05-17T13:04:44;50.40;;;14.52;;
12114;SDS011;6121;49.810;6.418;2023-05-17T13:07:10;41.50;;;11.88;;
12114;SDS011;6121;49.810;6.418;2023-05-17T13:09:46;54.22;;;15.07;;
12114;SDS011;6121;49.810;6.418;2023-05-17T13:12:17;46.75;;;12.77;;
12114;SDS011;6121;49.810;6.418;2023-05-17T13:14:46;56.05;;;15.38;;
12114;SDS011;6121;49.810;6.418;2023-05-17T13:19:58;48.15;;;13.60;;
12114;SDS011;6121;49.810;6.418;2023-05-17T13:22:24;49.50;;;13.57;;
12114;SDS011;6121;49.810;6.418;2023-05-17T13:24:50;67.00;;;18.23;;
12114;SDS011;6121;49.810;6.418;2023-05-17T13:27:18;47.70;;;13.13;;
12114;SDS011;6121;49.810;6.418;2023-05-17T13:29:44;54.72;;;14.88;;
12114;SDS011;6121;49.810;6.418;2023-05-17T13:32:11;51.95;;;14.13;;
12114;SDS011;6121;49.810;6.418;2023-05-17T13:34:38;56.10;;;15.43;;
12114;SDS011;6121;49.810;6.418;2023-05-17T13:37:05;43.30;;;12.18;;
12114;SDS011;6121;49.810;6.418;2023-05-17T13:39:31;49.90;;;14.20;;
12114;SDS011;6121;49.810;6.418;2023-05-17T13:41:57;41.15;;;11.77;;
12114;SDS011;6121;49.810;6.418;2023-05-17T13:44:23;41.17;;;11.70;;
12114;SDS011;6121;49.810;6.418;2023-05-17T13:46:49;47.33;;;13.30;;
12114;SDS011;6121;49.810;6.418;2023-05-17T13:49:15;67.53;;;18.65;;
12114;SDS011;6121;49.810;6.418;2023-05-17T13:51:41;45.75;;;12.75;;
12114;SDS011;6121;49.810;6.418;2023-05-17T13:54:07;46.20;;;12.88;;
12114;SDS011;6121;49.810;6.418;2023-05-17T13:56:34;48.70;;;13.40;;
12114;SDS011;6121;49.810;6.418;2023-05-17T13:59:00;70.20;;;18.57;;
12114;SDS011;6121;49.810;6.418;2023-05-17T14:01:27;47.05;;;12.57;;
12114;SDS011;6121;49.810;6.418;2023-05-17T14:03:53;51.30;;;13.93;;
12114;SDS011;6121;49.810;6.418;2023-05-17T14:06:19;54.60;;;14.93;;
12114;SDS011;6121;49.810;6.418;2023-05-17T14:08:45;64.20;;;17.63;;
12114;SDS011;6121;49.810;6.418;2023-05-17T14:11:11;45.38;;;12.60;;
12114;SDS011;6121;49.810;6.418;2023-05-17T14:13:37;45.53;;;12.70;;
12114;SDS011;6121;49.810;6.418;2023-05-17T14:16:05;39.37;;;11.13;;
12114;SDS011;6121;49.810;6.418;2023-05-17T14:18:30;56.47;;;15.82;;
12114;SDS011;6121;49.810;6.418;2023-05-17T14:20:57;49.22;;;13.70;;
12114;SDS011;6121;49.810;6.418;2023-05-17T14:23:25;42.60;;;11.90;;
12114;SDS011;6121;49.810;6.418;2023-05-17T14:25:51;52.28;;;14.70;;
12114;SDS011;6121;49.810;6.418;2023-05-17T14:28:17;53.27;;;15.17;;
12114;SDS011;6121;49.810;6.418;2023-05-17T14:30:43;48.78;;;13.80;;
12114;SDS011;6121;49.810;6.418;2023-05-17T14:33:09;47.40;;;13.40;;
12114;SDS011;6121;49.810;6.418;2023-05-17T14:35:36;50.08;;;13.70;;
12114;SDS011;6121;49.810;6.418;2023-05-17T14:38:02;45.45;;;12.63;;
12114;SDS011;6121;49.810;6.418;2023-05-17T14:40:29;48.10;;;13.63;;
12114;SDS011;6121;49.810;6.418;2023-05-17T14:42:55;47.97;;;13.57;;
12114;SDS011;6121;49.810;6.418;2023-05-17T14:45:21;38.20;;;10.98;;
12114;SDS011;6121;49.810;6.418;2023-05-17T14:47:48;46.15;;;13.20;;
12114;SDS011;6121;49.810;6.418;2023-05-17T14:50:14;45.22;;;12.82;;
12114;SDS011;6121;49.810;6.418;2023-05-17T14:52:40;43.97;;;12.60;;
12114;SDS011;6121;49.810;6.418;2023-05-17T14:55:06;50.67;;;14.30;;
12114;SDS011;6121;49.810;6.418;2023-05-17T14:57:33;48.38;;;13.57;;
12114;SDS011;6121;49.810;6.418;2023-05-17T15:00:00;53.17;;;14.80;;
12114;SDS011;6121;49.810;6.418;2023-05-17T15:02:26;41.55;;;11.65;;